sensor_id;sensor_type;location;lat;lon;timestamp;pressure;altitude;pressure_sealevel;temperature;humidity
73338;BME280;61575;49.908;35.556;2023-06-14T00:00:54;98989.44;;;14.31;79.72
73338;BME280;61575;49.908;35.556;2023-06-14T00:03:58;98983.44;;;14.29;79.77
73338;BME280;61575;49.908;35.556;2023-06-14T00:07:00;98989.66;;;14.23;80.48
73338;BME280;61575;49.908;35.556;2023-06-14T00:10:03;98987.16;;;14.22;80.00
73338;BME280;61575;49.908;35.556;2023-06-14T00:13:06;98986.75;;;14.25;80.12
73338;BME280;61575;49.908;35.556;2023-06-14T00:16:08;98990.47;;;14.24;80.03
73338;BME280;61575;49.908;35.556;2023-06-14T00:19:11;98981.75;;;14.22;80.23
73338;BME280;61575;49.908;35.556;2023-06-14T00:22:13;98991.09;;;14.19;80.11
73338;BME280;61575;49.908;35.556;2023-06-14T00:25:15;98987.34;;;14.13;80.31
73338;BME280;61575;49.908;35.556;2023-06-14T00:28:30;98981.34;;;14.11;80.35
73338;BME280;61575;49.908;35.556;2023-06-14T00:31:31;98985.69;;;14.12;80.45
73338;BME280;61575;49.908;35.556;2023-06-14T00:34:34;98981.75;;;14.08;80.30
73338;BME280;61575;49.908;35.556;2023-06-14T00:37:36;98972.19;;;14.06;80.58
73338;BME280;61575;49.908;35.556;2023-06-14T00:40:38;98969.69;;;14.04;80.83
73338;BME280;61575;49.908;35.556;2023-06-14T00:43:40;98966.38;;;14.02;80.96
73338;BME280;61575;49.908;35.556;2023-06-14T00:46:42;98971.34;;;14.05;80.60
73338;BME280;61575;49.908;35.556;2023-06-14T00:49:46;98970.09;;;14.01;81.42
73338;BME280;61575;49.908;35.556;2023-06-14T00:52:49;98971.34;;;14.05;81.17
73338;BME280;61575;49.908;35.556;2023-06-14T00:55:52;98963.47;;;14.10;81.21
73338;BME280;61575;49.908;35.556;2023-06-14T00:58:56;98962.44;;;14.11;81.39
73338;BME280;61575;49.908;35.556;2023-06-14T01:01:57;98962.63;;;14.17;81.15
73338;BME280;61575;49.908;35.556;2023-06-14T01:04:59;98960.16;;;14.22;81.21
73338;BME280;61575;49.908;35.556;2023-06-14T01:11:26;98963.06;;;14.33;80.99
73338;BME280;61575;49.908;35.556;2023-06-14T01:14:31;98962.22;;;14.33;81.08
73338;BME280;61575;49.908;35.556;2023-06-14T01:17:35;98966.19;;;14.37;81.11
73338;BME280;61575;49.908;35.556;2023-06-14T01:20:46;98965.75;;;14.40;81.09
73338;BME280;61575;49.908;35.556;2023-06-14T01:23:52;98961.81;;;14.42;80.97
73338;BME280;61575;49.908;35.556;2023-06-14T01:27:01;98963.06;;;14.47;81.12
73338;BME280;61575;49.908;35.556;2023-06-14T01:30:04;98964.56;;;14.49;80.55
73338;BME280;61575;49.908;35.556;2023-06-14T01:33:07;98968.47;;;14.47;81.06
73338;BME280;61575;49.908;35.556;2023-06-14T01:36:09;98967.25;;;14.49;80.99
73338;BME280;61575;49.908;35.556;2023-06-14T01:39:13;98968.66;;;14.52;81.01
73338;BME280;61575;49.908;35.556;2023-06-14T01:42:16;98965.97;;;14.58;80.63
73338;BME280;61575;49.908;35.556;2023-06-14T01:45:18;98972.41;;;14.57;80.98
73338;BME280;61575;49.908;35.556;2023-06-14T01:48:21;98967.44;;;14.54;80.72
73338;BME280;61575;49.908;35.556;2023-06-14T01:51:23;98968.66;;;14.58;80.69
73338;BME280;61575;49.908;35.556;2023-06-14T01:54:25;98962.84;;;14.61;80.76
73338;BME280;61575;49.908;35.556;2023-06-14T01:57:27;98963.47;;;14.63;80.58
73338;BME280;61575;49.908;35.556;2023-06-14T02:00:30;98968.25;;;14.68;80.58
73338;BME280;61575;49.908;35.556;2023-06-14T02:03:32;98964.28;;;14.64;80.56
73338;BME280;61575;49.908;35.556;2023-06-14T02:06:34;98965.75;;;14.66;80.58
73338;BME280;61575;49.908;35.556;2023-06-14T02:09:36;98968.25;;;14.68;80.67
73338;BME280;61575;49.908;35.556;2023-06-14T02:12:38;98976.34;;;14.68;80.32
73338;BME280;61575;49.908;35.556;2023-06-14T02:15:40;98974.06;;;14.71;80.38
73338;BME280;61575;49.908;35.556;2023-06-14T02:18:42;98983.41;;;14.75;80.14
73338;BME280;61575;49.908;35.556;2023-06-14T02:21:44;98979.88;;;14.82;79.57
73338;BME280;61575;49.908;35.556;2023-06-14T02:24:47;98972.38;;;14.84;79.70
73338;BME280;61575;49.908;35.556;2023-06-14T02:27:54;98979.25;;;14.80;79.94
73338;BME280;61575;49.908;35.556;2023-06-14T02:30:56;98979.66;;;14.83;79.96
73338;BME280;61575;49.908;35.556;2023-06-14T02:33:58;98981.94;;;14.80;79.64
73338;BME280;61575;49.908;35.556;2023-06-14T02:37:01;98982.16;;;14.78;79.80
73338;BME280;61575;49.908;35.556;2023-06-14T02:40:05;98981.34;;;14.71;80.11
73338;BME280;61575;49.908;35.556;2023-06-14T02:43:08;98980.50;;;14.70;79.85
73338;BME280;61575;49.908;35.556;2023-06-14T02:46:10;98984.66;;;14.66;79.98
73338;BME280;61575;49.908;35.556;2023-06-14T02:49:12;98982.19;;;14.58;80.54
73338;BME280;61575;49.908;35.556;2023-06-14T02:52:14;98980.50;;;14.64;80.65
73338;BME280;61575;49.908;35.556;2023-06-14T02:55:17;98980.72;;;14.69;80.11
73338;BME280;61575;49.908;35.556;2023-06-14T02:58:19;98978.22;;;14.67;80.15
73338;BME280;61575;49.908;35.556;2023-06-14T03:01:21;98977.38;;;14.67;80.24
73338;BME280;61575;49.908;35.556;2023-06-14T03:04:24;98974.06;;;14.71;79.86
73338;BME280;61575;49.908;35.556;2023-06-14T03:07:28;98971.16;;;14.66;80.28
73338;BME280;61575;49.908;35.556;2023-06-14T03:10:32;98973.63;;;14.74;80.14
73338;BME280;61575;49.908;35.556;2023-06-14T03:13:35;98961.78;;;14.75;79.99
73338;BME280;61575;49.908;35.556;2023-06-14T03:16:39;98970.94;;;14.81;79.72
73338;BME280;61575;49.908;35.556;2023-06-14T03:19:44;98968.22;;;14.81;80.15
73338;BME280;61575;49.908;35.556;2023-06-14T03:22:47;98973.41;;;14.83;80.02
73338;BME280;61575;49.908;35.556;2023-06-14T03:25:50;98975.50;;;14.81;79.99
73338;BME280;61575;49.908;35.556;2023-06-14T03:28:53;98971.56;;;14.76;79.87
73338;BME280;61575;49.908;35.556;2023-06-14T03:32:01;98979.66;;;14.76;79.81
73338;BME280;61575;49.908;35.556;2023-06-14T03:35:16;98976.34;;;14.74;79.58
73338;BME280;61575;49.908;35.556;2023-06-14T03:38:21;98973.63;;;14.74;79.67
73338;BME280;61575;49.908;35.556;2023-06-14T03:41:24;98973.84;;;14.80;79.55
73338;BME280;61575;49.908;35.556;2023-06-14T03:44:28;98972.81;;;14.81;79.61
73338;BME280;61575;49.908;35.556;2023-06-14T03:47:30;98972.78;;;14.87;79.19
73338;BME280;61575;49.908;35.556;2023-06-14T03:50:32;98965.09;;;14.91;79.17
73338;BME280;61575;49.908;35.556;2023-06-14T03:53:34;98971.53;;;14.90;78.87
73338;BME280;61575;49.908;35.556;2023-06-14T03:56:45;98974.22;;;14.96;78.97
73338;BME280;61575;49.908;35.556;2023-06-14T03:59:48;98974.44;;;15.01;78.64
73338;BME280;61575;49.908;35.556;2023-06-14T04:02:50;98969.63;;;15.03;78.65
73338;BME280;61575;49.908;35.556;2023-06-14T04:05:53;98965.88;;;15.04;78.45
73338;BME280;61575;49.908;35.556;2023-06-14T04:08:59;98969.81;;;15.08;78.12
73338;BME280;61575;49.908;35.556;2023-06-14T04:12:07;98975.03;;;15.03;78.39
73338;BME280;61575;49.908;35.556;2023-06-14T04:15:13;98971.69;;;15.08;78.56
73338;BME280;61575;49.908;35.556;2023-06-14T04:18:23;98974.81;;;15.12;78.46
73338;BME280;61575;49.908;35.556;2023-06-14T04:21:26;98972.50;;;15.15;78.47
73338;BME280;61575;49.908;35.556;2023-06-14T04:24:33;98976.66;;;15.18;78.54
73338;BME280;61575;49.908;35.556;2023-06-14T04:27:37;98979.16;;;15.19;78.39
73338;BME280;61575;49.908;35.556;2023-06-14T04:30:40;98972.50;;;15.22;78.31
73338;BME280;61575;49.908;35.556;2023-06-14T04:33:42;98974.38;;;15.21;78.24
73338;BME280;61575;49.908;35.556;2023-06-14T04:36:49;98964.97;;;15.30;78.06
73338;BME280;61575;49.908;35.556;2023-06-14T04:39:52;98970.56;;;15.35;77.94
73338;BME280;61575;49.908;35.556;2023-06-14T04:42:54;98973.03;;;15.43;78.16
73338;BME280;61575;49.908;35.556;2023-06-14T04:45:56;98971.16;;;15.44;77.81
73338;BME280;61575;49.908;35.556;2023-06-14T04:49:00;98972.78;;;15.52;77.55
73338;BME280;61575;49.908;35.556;2023-06-14T04:52:04;98973.41;;;15.54;77.61
73338;BME280;61575;49.908;35.556;2023-06-14T04:55:09;98969.88;;;15.53;77.79
73338;BME280;61575;49.908;35.556;2023-06-14T04:58:12;98966.38;;;15.46;77.84
73338;BME280;61575;49.908;35.556;2023-06-14T05:01:14;98955.72;;;15.58;77.78
73338;BME280;61575;49.908;35.556;2023-06-14T05:04:18;98971.50;;;15.67;77.22
73338;BME280;61575;49.908;35.556;2023-06-14T05:07:20;98968.41;;;15.64;77.12
73338;BME280;61575;49.908;35.556;2023-06-14T05:10:26;98973.78;;;15.70;76.99
73338;BME280;61575;49.908;35.556;2023-06-14T05:13:28;98977.94;;;15.73;77.19
73338;BME280;61575;49.908;35.556;2023-06-14T05:16:30;98979.41;;;15.69;76.75
73338;BME280;61575;49.908;35.556;2023-06-14T05:19:32;98981.91;;;15.70;76.86
73338;BME280;61575;49.908;35.556;2023-06-14T05:22:34;98975.84;;;15.75;76.52
73338;BME280;61575;49.908;35.556;2023-06-14T05:25:36;98977.06;;;15.79;76.41
73338;BME280;61575;49.908;35.556;2023-06-14T05:28:38;98973.00;;;15.95;76.23
73338;BME280;61575;49.908;35.556;2023-06-14T05:31:40;98974.81;;;16.07;75.82
73338;BME280;61575;49.908;35.556;2023-06-14T05:34:43;98982.31;;;16.05;75.60
73338;BME280;61575;49.908;35.556;2023-06-14T05:37:44;98991.44;;;16.11;75.40
73338;BME280;61575;49.908;35.556;2023-06-14T05:40:46;98995.44;;;16.09;74.95
73338;BME280;61575;49.908;35.556;2023-06-14T05:43:48;98986.47;;;16.08;75.02
73338;BME280;61575;49.908;35.556;2023-06-14T05:46:50;98986.72;;;16.00;75.11
73338;BME280;61575;49.908;35.556;2023-06-14T05:49:52;98988.75;;;16.11;74.96
73338;BME280;61575;49.908;35.556;2023-06-14T05:52:54;98984.94;;;16.19;74.82
73338;BME280;61575;49.908;35.556;2023-06-14T05:55:56;98982.84;;;16.21;74.22
73338;BME280;61575;49.908;35.556;2023-06-14T05:58:58;98979.25;;;16.27;74.10
73338;BME280;61575;49.908;35.556;2023-06-14T06:02:00;98977.31;;;16.34;74.05
73338;BME280;61575;49.908;35.556;2023-06-14T06:05:02;98965.94;;;16.50;74.08
73338;BME280;61575;49.908;35.556;2023-06-14T06:08:04;98965.41;;;16.66;73.41
73338;BME280;61575;49.908;35.556;2023-06-14T06:11:06;98970.72;;;16.80;73.23
73338;BME280;61575;49.908;35.556;2023-06-14T06:14:08;98980.06;;;16.84;72.78
73338;BME280;61575;49.908;35.556;2023-06-14T06:17:10;98972.97;;;16.83;72.93
73338;BME280;61575;49.908;35.556;2023-06-14T06:20:12;98978.09;;;16.91;72.59
73338;BME280;61575;49.908;35.556;2023-06-14T06:23:14;98976.22;;;16.91;72.41
73338;BME280;61575;49.908;35.556;2023-06-14T06:26:16;98981.19;;;16.94;72.38
73338;BME280;61575;49.908;35.556;2023-06-14T06:29:18;98966.97;;;16.99;71.86
73338;BME280;61575;49.908;35.556;2023-06-14T06:32:20;98977.59;;;17.00;71.72
73338;BME280;61575;49.908;35.556;2023-06-14T06:35:22;98983.16;;;17.06;72.07
73338;BME280;61575;49.908;35.556;2023-06-14T06:38:23;98985.34;;;16.97;71.71
73338;BME280;61575;49.908;35.556;2023-06-14T06:41:25;98986.88;;;17.11;71.72
73338;BME280;61575;49.908;35.556;2023-06-14T06:44:28;98974.97;;;17.12;71.31
73338;BME280;61575;49.908;35.556;2023-06-14T06:47:30;98981.28;;;17.24;71.13
73338;BME280;61575;49.908;35.556;2023-06-14T06:50:32;98983.94;;;17.31;71.22
73338;BME280;61575;49.908;35.556;2023-06-14T06:53:34;98981.00;;;17.32;70.60
73338;BME280;61575;49.908;35.556;2023-06-14T06:56:45;98989.59;;;17.48;70.02
73338;BME280;61575;49.908;35.556;2023-06-14T06:59:47;98988.72;;;17.54;69.90
73338;BME280;61575;49.908;35.556;2023-06-14T07:02:49;98972.66;;;17.52;69.10
73338;BME280;61575;49.908;35.556;2023-06-14T07:05:53;98983.75;;;17.81;69.32
73338;BME280;61575;49.908;35.556;2023-06-14T07:08:54;98973.13;;;17.79;69.21
73338;BME280;61575;49.908;35.556;2023-06-14T07:11:56;98975.09;;;17.72;69.10
73338;BME280;61575;49.908;35.556;2023-06-14T07:14:58;98983.81;;;17.92;68.88
73338;BME280;61575;49.908;35.556;2023-06-14T07:18:02;98975.72;;;18.16;69.10
73338;BME280;61575;49.908;35.556;2023-06-14T07:21:04;98984.13;;;18.14;68.03
73338;BME280;61575;49.908;35.556;2023-06-14T07:24:06;98980.34;;;18.15;67.28
73338;BME280;61575;49.908;35.556;2023-06-14T07:27:09;98986.00;;;18.14;67.67
73338;BME280;61575;49.908;35.556;2023-06-14T07:30:15;98992.53;;;18.24;67.64
73338;BME280;61575;49.908;35.556;2023-06-14T07:33:17;98992.03;;;18.46;67.62
73338;BME280;61575;49.908;35.556;2023-06-14T07:36:19;98980.09;;;18.58;67.39
73338;BME280;61575;49.908;35.556;2023-06-14T07:39:21;98978.94;;;18.66;66.97
73338;BME280;61575;49.908;35.556;2023-06-14T07:42:23;98977.16;;;18.60;65.82
73338;BME280;61575;49.908;35.556;2023-06-14T07:45:25;98974.09;;;18.68;66.37
73338;BME280;61575;49.908;35.556;2023-06-14T07:48:27;98974.31;;;18.78;66.33
73338;BME280;61575;49.908;35.556;2023-06-14T07:51:30;98973.03;;;18.81;66.30
73338;BME280;61575;49.908;35.556;2023-06-14T07:54:32;98982.72;;;18.88;65.87
73338;BME280;61575;49.908;35.556;2023-06-14T07:57:34;98981.41;;;19.03;65.65
73338;BME280;61575;49.908;35.556;2023-06-14T08:00:37;98977.88;;;19.02;65.24
73338;BME280;61575;49.908;35.556;2023-06-14T08:03:38;98988.50;;;19.04;65.06
73338;BME280;61575;49.908;35.556;2023-06-14T08:06:41;98982.84;;;18.93;65.57
73338;BME280;61575;49.908;35.556;2023-06-14T08:09:45;98979.88;;;18.95;65.87
73338;BME280;61575;49.908;35.556;2023-06-14T08:12:47;98977.75;;;18.97;65.42
73338;BME280;61575;49.908;35.556;2023-06-14T08:15:52;98982.47;;;19.13;65.42
73338;BME280;61575;49.908;35.556;2023-06-14T08:18:55;98983.03;;;19.27;64.57
73338;BME280;61575;49.908;35.556;2023-06-14T08:21:57;98978.09;;;19.36;64.24
73338;BME280;61575;49.908;35.556;2023-06-14T08:25:00;98980.22;;;19.34;64.05
73338;BME280;61575;49.908;35.556;2023-06-14T08:28:02;98975.34;;;19.47;64.29
73338;BME280;61575;49.908;35.556;2023-06-14T08:31:04;98975.06;;;19.61;63.36
73338;BME280;61575;49.908;35.556;2023-06-14T08:34:06;98977.34;;;19.80;62.68
73338;BME280;61575;49.908;35.556;2023-06-14T08:37:11;98969.41;;;19.79;62.75
73338;BME280;61575;49.908;35.556;2023-06-14T08:40:19;98964.34;;;19.99;62.59
73338;BME280;61575;49.908;35.556;2023-06-14T08:43:21;98968.97;;;20.27;61.72
73338;BME280;61575;49.908;35.556;2023-06-14T08:46:25;98967.06;;;20.61;61.26
73338;BME280;61575;49.908;35.556;2023-06-14T08:49:29;98963.75;;;20.76;60.65
73338;BME280;61575;49.908;35.556;2023-06-14T08:52:36;98964.59;;;20.76;60.46
73338;BME280;61575;49.908;35.556;2023-06-14T08:55:42;98973.69;;;20.65;59.77
73338;BME280;61575;49.908;35.556;2023-06-14T08:58:45;98967.53;;;21.08;59.71
73338;BME280;61575;49.908;35.556;2023-06-14T09:01:49;98969.69;;;21.45;58.70
73338;BME280;61575;49.908;35.556;2023-06-14T09:05:13;98972.94;;;22.12;57.78
73338;BME280;61575;49.908;35.556;2023-06-14T09:08:15;98956.44;;;22.61;56.99
73338;BME280;61575;49.908;35.556;2023-06-14T09:11:18;98962.00;;;23.13;54.72
73338;BME280;61575;49.908;35.556;2023-06-14T09:14:23;98958.28;;;23.35;53.83
73338;BME280;61575;49.908;35.556;2023-06-14T09:17:25;98955.25;;;23.26;54.01
73338;BME280;61575;49.908;35.556;2023-06-14T09:20:29;98954.50;;;23.46;54.08
73338;BME280;61575;49.908;35.556;2023-06-14T09:23:36;98946.81;;;23.43;53.06
73338;BME280;61575;49.908;35.556;2023-06-14T09:26:40;98954.63;;;23.76;52.43
73338;BME280;61575;49.908;35.556;2023-06-14T09:29:42;98954.19;;;24.20;51.26
73338;BME280;61575;49.908;35.556;2023-06-14T09:32:44;98949.53;;;24.21;50.25
73338;BME280;61575;49.908;35.556;2023-06-14T09:35:51;98950.91;;;24.38;50.23
73338;BME280;61575;49.908;35.556;2023-06-14T09:38:56;98945.44;;;24.38;49.70
73338;BME280;61575;49.908;35.556;2023-06-14T09:41:58;98947.31;;;24.07;50.17
73338;BME280;61575;49.908;35.556;2023-06-14T09:45:01;98945.00;;;23.69;50.87
73338;BME280;61575;49.908;35.556;2023-06-14T09:48:04;98949.03;;;23.46;51.97
73338;BME280;61575;49.908;35.556;2023-06-14T09:51:10;98950.03;;;23.25;52.50
73338;BME280;61575;49.908;35.556;2023-06-14T09:54:16;98944.31;;;22.89;52.48
73338;BME280;61575;49.908;35.556;2023-06-14T09:57:23;98934.69;;;22.82;52.73
73338;BME280;61575;49.908;35.556;2023-06-14T10:00:26;98941.03;;;22.92;53.17
73338;BME280;61575;49.908;35.556;2023-06-14T10:03:28;98952.91;;;23.08;52.31
73338;BME280;61575;49.908;35.556;2023-06-14T10:06:45;98940.44;;;23.27;51.75
73338;BME280;61575;49.908;35.556;2023-06-14T10:09:47;98944.91;;;22.96;51.87
73338;BME280;61575;49.908;35.556;2023-06-14T10:12:51;98932.31;;;22.95;52.12
73338;BME280;61575;49.908;35.556;2023-06-14T10:16:10;98938.78;;;23.21;52.16
73338;BME280;61575;49.908;35.556;2023-06-14T10:19:21;98933.13;;;23.43;51.87
73338;BME280;61575;49.908;35.556;2023-06-14T10:22:32;98934.72;;;23.34;50.56
73338;BME280;61575;49.908;35.556;2023-06-14T10:25:35;98932.56;;;23.41;51.87
73338;BME280;61575;49.908;35.556;2023-06-14T10:28:37;98940.97;;;23.24;51.29
73338;BME280;61575;49.908;35.556;2023-06-14T10:31:48;98943.91;;;23.12;51.40
73338;BME280;61575;49.908;35.556;2023-06-14T10:35:05;98937.00;;;23.52;51.30
73338;BME280;61575;49.908;35.556;2023-06-14T10:38:14;98932.31;;;23.48;50.71
73338;BME280;61575;49.908;35.556;2023-06-14T10:41:17;98943.50;;;23.36;51.85
73338;BME280;61575;49.908;35.556;2023-06-14T10:50:29;98942.53;;;22.68;51.98
73338;BME280;61575;49.908;35.556;2023-06-14T10:53:40;98954.91;;;22.75;52.39
73338;BME280;61575;49.908;35.556;2023-06-14T10:56:47;98951.84;;;22.40;53.54
73338;BME280;61575;49.908;35.556;2023-06-14T10:59:50;98948.59;;;22.43;53.36
73338;BME280;61575;49.908;35.556;2023-06-14T11:06:13;98951.88;;;21.86;55.13
73338;BME280;61575;49.908;35.556;2023-06-14T11:12:36;98957.03;;;21.82;55.47
73338;BME280;61575;49.908;35.556;2023-06-14T11:15:44;98963.47;;;21.71;55.71
73338;BME280;61575;49.908;35.556;2023-06-14T11:18:46;98962.81;;;21.64;56.00
73338;BME280;61575;49.908;35.556;2023-06-14T11:21:48;98959.81;;;21.66;55.99
73338;BME280;61575;49.908;35.556;2023-06-14T11:24:50;98967.97;;;21.82;56.27
73338;BME280;61575;49.908;35.556;2023-06-14T11:27:52;98962.63;;;21.93;56.05
73338;BME280;61575;49.908;35.556;2023-06-14T11:31:01;98957.03;;;21.82;56.17
73338;BME280;61575;49.908;35.556;2023-06-14T11:34:03;98950.78;;;21.87;55.90
73338;BME280;61575;49.908;35.556;2023-06-14T11:37:07;98945.91;;;21.89;55.97
73338;BME280;61575;49.908;35.556;2023-06-14T11:40:11;98947.34;;;21.97;56.18
73338;BME280;61575;49.908;35.556;2023-06-14T11:43:13;98952.19;;;21.90;56.38
73338;BME280;61575;49.908;35.556;2023-06-14T11:46:15;98944.44;;;21.81;56.58
73338;BME280;61575;49.908;35.556;2023-06-14T11:49:18;98950.38;;;21.73;56.99
73338;BME280;61575;49.908;35.556;2023-06-14T11:52:20;98945.78;;;21.57;57.48
73338;BME280;61575;49.908;35.556;2023-06-14T11:55:23;98952.25;;;21.29;58.35
73338;BME280;61575;49.908;35.556;2023-06-14T11:58:26;98953.72;;;21.15;59.61
73338;BME280;61575;49.908;35.556;2023-06-14T12:01:30;98950.47;;;21.18;59.79
73338;BME280;61575;49.908;35.556;2023-06-14T12:04:33;98959.50;;;21.18;60.15
73338;BME280;61575;49.908;35.556;2023-06-14T12:07:38;98955.97;;;21.01;62.08
73338;BME280;61575;49.908;35.556;2023-06-14T12:10:43;98957.81;;;20.79;63.29
73338;BME280;61575;49.908;35.556;2023-06-14T12:13:45;98958.97;;;20.66;63.68
73338;BME280;61575;49.908;35.556;2023-06-14T12:16:47;98970.63;;;20.45;64.68
73338;BME280;61575;49.908;35.556;2023-06-14T12:19:50;98957.81;;;20.45;64.84
73338;BME280;61575;49.908;35.556;2023-06-14T12:22:52;98951.03;;;20.31;65.79
73338;BME280;61575;49.908;35.556;2023-06-14T12:25:58;98956.88;;;20.23;66.75
73338;BME280;61575;49.908;35.556;2023-06-14T12:29:05;98968.63;;;19.95;68.31
73338;BME280;61575;49.908;35.556;2023-06-14T12:32:07;98963.81;;;19.85;68.62
73338;BME280;61575;49.908;35.556;2023-06-14T12:35:09;98965.81;;;19.62;69.54
73338;BME280;61575;49.908;35.556;2023-06-14T12:38:11;98968.91;;;19.65;70.93
73338;BME280;61575;49.908;35.556;2023-06-14T12:41:13;98959.59;;;19.49;70.54
73338;BME280;61575;49.908;35.556;2023-06-14T12:44:18;98959.81;;;19.48;70.80
73338;BME280;61575;49.908;35.556;2023-06-14T12:47:20;98961.66;;;19.31;70.87
73338;BME280;61575;49.908;35.556;2023-06-14T12:50:22;98966.63;;;19.10;70.87
73338;BME280;61575;49.908;35.556;2023-06-14T12:53:27;98966.88;;;18.97;71.21
73338;BME280;61575;49.908;35.556;2023-06-14T12:56:29;98967.69;;;18.98;71.21
73338;BME280;61575;49.908;35.556;2023-06-14T12:59:31;98965.44;;;18.83;71.17
73338;BME280;61575;49.908;35.556;2023-06-14T13:02:34;98972.53;;;18.60;72.10
73338;BME280;61575;49.908;35.556;2023-06-14T13:05:37;98973.38;;;18.61;71.37
73338;BME280;61575;49.908;35.556;2023-06-14T13:08:42;98974.13;;;18.38;72.04
73338;BME280;61575;49.908;35.556;2023-06-14T13:11:44;98966.88;;;18.20;73.42
73338;BME280;61575;49.908;35.556;2023-06-14T13:14:48;98969.09;;;18.42;72.28
73338;BME280;61575;49.908;35.556;2023-06-14T13:17:51;98958.81;;;18.55;72.65
73338;BME280;61575;49.908;35.556;2023-06-14T13:20:53;98961.78;;;18.66;73.34
73338;BME280;61575;49.908;35.556;2023-06-14T13:23:55;98952.09;;;18.70;73.20
73338;BME280;61575;49.908;35.556;2023-06-14T13:26:57;98954.69;;;18.65;73.83
73338;BME280;61575;49.908;35.556;2023-06-14T13:29:59;98951.25;;;18.69;73.61
73338;BME280;61575;49.908;35.556;2023-06-14T13:33:01;98949.97;;;18.72;74.09
73338;BME280;61575;49.908;35.556;2023-06-14T13:36:03;98945.22;;;18.67;75.71
73338;BME280;61575;49.908;35.556;2023-06-14T13:39:05;98951.84;;;18.59;76.28
73338;BME280;61575;49.908;35.556;2023-06-14T13:42:08;98944.28;;;18.61;75.28
73338;BME280;61575;49.908;35.556;2023-06-14T13:45:11;98943.16;;;18.39;76.40
73338;BME280;61575;49.908;35.556;2023-06-14T13:48:13;98943.28;;;18.32;76.99
73338;BME280;61575;49.908;35.556;2023-06-14T13:51:15;98957.44;;;18.23;78.33
73338;BME280;61575;49.908;35.556;2023-06-14T13:54:20;98959.41;;;18.04;78.15
73338;BME280;61575;49.908;35.556;2023-06-14T13:57:23;98957.09;;;17.89;78.65
73338;BME280;61575;49.908;35.556;2023-06-14T14:00:25;98955.09;;;17.85;79.48
73338;BME280;61575;49.908;35.556;2023-06-14T14:03:27;98955.69;;;17.87;79.45
73338;BME280;61575;49.908;35.556;2023-06-14T14:06:28;98951.91;;;17.88;79.75
73338;BME280;61575;49.908;35.556;2023-06-14T14:09:31;98949.56;;;17.91;79.72
73338;BME280;61575;49.908;35.556;2023-06-14T14:12:33;98947.41;;;17.82;80.73
73338;BME280;61575;49.908;35.556;2023-06-14T14:15:35;98951.75;;;17.83;79.97
73338;BME280;61575;49.908;35.556;2023-06-14T14:18:38;98951.25;;;17.74;80.36
73338;BME280;61575;49.908;35.556;2023-06-14T14:21:40;98949.97;;;17.77;80.24
73338;BME280;61575;49.908;35.556;2023-06-14T14:24:42;98942.88;;;17.76;80.31
73338;BME280;61575;49.908;35.556;2023-06-14T14:27:44;98950.44;;;17.74;81.33
73338;BME280;61575;49.908;35.556;2023-06-14T14:30:46;98956.22;;;17.77;80.96
73338;BME280;61575;49.908;35.556;2023-06-14T14:33:49;98953.09;;;17.62;81.82
73338;BME280;61575;49.908;35.556;2023-06-14T14:36:51;98954.28;;;17.66;81.70
73338;BME280;61575;49.908;35.556;2023-06-14T14:39:54;98947.22;;;17.65;82.13
73338;BME280;61575;49.908;35.556;2023-06-14T14:42:56;98946.97;;;17.66;82.54
73338;BME280;61575;49.908;35.556;2023-06-14T14:45:58;98952.19;;;17.68;82.39
73338;BME280;61575;49.908;35.556;2023-06-14T14:48:59;98946.75;;;17.68;82.19
73338;BME280;61575;49.908;35.556;2023-06-14T14:52:02;98950.06;;;17.70;82.46
73338;BME280;61575;49.908;35.556;2023-06-14T14:55:23;98945.09;;;17.67;83.18
73338;BME280;61575;49.908;35.556;2023-06-14T14:58:25;98942.47;;;17.60;83.19
73338;BME280;61575;49.908;35.556;2023-06-14T15:01:28;98943.66;;;17.64;83.26
73338;BME280;61575;49.908;35.556;2023-06-14T15:04:30;98933.94;;;17.57;83.49
73338;BME280;61575;49.908;35.556;2023-06-14T15:07:32;98944.72;;;17.63;83.07
73338;BME280;61575;49.908;35.556;2023-06-14T15:10:39;98939.75;;;17.60;83.32
73338;BME280;61575;49.908;35.556;2023-06-14T15:13:43;98943.53;;;17.59;84.07
73338;BME280;61575;49.908;35.556;2023-06-14T15:16:45;98939.75;;;17.42;84.75
73338;BME280;61575;49.908;35.556;2023-06-14T15:19:47;98940.28;;;17.51;84.62
73338;BME280;61575;49.908;35.556;2023-06-14T15:22:49;98929.94;;;17.41;85.36
73338;BME280;61575;49.908;35.556;2023-06-14T15:25:51;98934.09;;;17.44;84.90
73338;BME280;61575;49.908;35.556;2023-06-14T15:28:53;98928.75;;;17.37;85.51
73338;BME280;61575;49.908;35.556;2023-06-14T15:31:55;98937.41;;;17.27;86.16
73338;BME280;61575;49.908;35.556;2023-06-14T15:34:59;98937.88;;;17.24;86.14
73338;BME280;61575;49.908;35.556;2023-06-14T15:38:01;98924.31;;;17.24;85.88
73338;BME280;61575;49.908;35.556;2023-06-14T15:41:03;98929.75;;;17.24;86.28
73338;BME280;61575;49.908;35.556;2023-06-14T15:44:05;98932.75;;;17.16;87.02
73338;BME280;61575;49.908;35.556;2023-06-14T15:47:08;98919.66;;;17.13;87.81
73338;BME280;61575;49.908;35.556;2023-06-14T15:50:10;98929.44;;;17.14;87.60
73338;BME280;61575;49.908;35.556;2023-06-14T15:53:11;98929.38;;;17.21;87.05
73338;BME280;61575;49.908;35.556;2023-06-14T15:56:13;98925.81;;;17.20;87.45
73338;BME280;61575;49.908;35.556;2023-06-14T15:59:15;98930.66;;;17.18;87.64
73338;BME280;61575;49.908;35.556;2023-06-14T16:02:17;98935.31;;;17.11;88.04
73338;BME280;61575;49.908;35.556;2023-06-14T16:05:19;98931.09;;;16.97;89.72
73338;BME280;61575;49.908;35.556;2023-06-14T16:08:21;98934.13;;;17.07;88.52
73338;BME280;61575;49.908;35.556;2023-06-14T16:11:41;98942.63;;;17.11;88.84
73338;BME280;61575;49.908;35.556;2023-06-14T16:14:42;98938.03;;;17.11;89.35